createdAt,value
2018-10-04T00:02:07.700Z,79.50
2018-10-04T00:04:37.407Z,78.39
2018-10-04T00:07:07.142Z,79.58
2018-10-04T00:09:36.932Z,77.67
2018-10-04T00:12:06.675Z,77.35
2018-10-04T00:14:36.534Z,78.67
2018-10-04T00:17:06.484Z,77.64
2018-10-04T00:19:36.617Z,76.97
2018-10-04T00:22:06.432Z,79.09
2018-10-04T00:24:36.111Z,80.95
2018-10-04T00:27:06.528Z,79.35
2018-10-04T00:29:36.217Z,77.23
2018-10-04T00:32:05.917Z,77.36
2018-10-04T00:34:35.889Z,80.23
2018-10-04T00:37:05.915Z,80.95
2018-10-04T00:39:35.858Z,78.84
2018-10-04T00:42:05.636Z,77.53
2018-10-04T00:44:35.546Z,78.74
2018-10-04T00:47:08.416Z,81.47
2018-10-04T00:49:38.131Z,82.58
2018-10-04T00:52:08.090Z,80.92
2018-10-04T00:54:37.882Z,80.44
2018-10-04T00:57:07.706Z,78.97
2018-10-04T00:59:38.098Z,78.03
2018-10-04T01:02:08.383Z,79.67
2018-10-04T01:04:38.195Z,79.76
2018-10-04T01:07:08.272Z,79.32
2018-10-04T01:09:38.037Z,79.13
2018-10-04T01:12:07.752Z,81.79
2018-10-04T01:14:37.702Z,83.65
2018-10-04T01:17:07.411Z,83.20
2018-10-04T01:19:37.074Z,81.02
2018-10-04T01:22:07.495Z,79.88
2018-10-04T01:24:37.189Z,78.93
2018-10-04T01:27:07.002Z,78.27
2018-10-04T01:29:36.731Z,79.31
2018-10-04T01:32:06.418Z,78.24
2018-10-04T01:34:36.303Z,77.80
2018-10-04T01:37:06.095Z,77.40
2018-10-04T01:39:35.831Z,77.37
2018-10-04T01:42:05.560Z,79.17
2018-10-04T01:44:35.228Z,79.88
2018-10-04T01:47:05.055Z,79.88
2018-10-04T01:49:34.906Z,78.64
2018-10-04T01:52:04.583Z,78.24
2018-10-04T01:54:34.502Z,78.86
2018-10-04T01:57:04.473Z,80.59
2018-10-04T01:59:34.191Z,83.27
2018-10-04T02:02:03.886Z,82.17
2018-10-04T02:04:33.537Z,81.53
2018-10-04T02:07:03.288Z,81.15
2018-10-04T02:09:33.312Z,79.99
2018-10-04T02:12:03.068Z,80.35
2018-10-04T02:14:32.962Z,81.62
2018-10-04T02:17:02.743Z,80.77
2018-10-04T02:19:32.591Z,79.70
2018-10-04T02:22:02.671Z,78.86
2018-10-04T02:24:32.513Z,78.71
2018-10-04T02:27:02.428Z,78.43
2018-10-04T02:29:32.214Z,78.64
2018-10-04T02:32:01.914Z,82.65
2018-10-04T02:34:32.591Z,80.23
2018-10-04T02:37:02.375Z,80.09
2018-10-04T02:39:32.088Z,78.71
2018-10-04T02:42:01.790Z,79.46
2018-10-04T02:44:31.596Z,79.25
2018-10-04T02:47:01.516Z,78.61
2018-10-04T02:49:31.183Z,80.86
2018-10-04T02:52:01.155Z,79.76
2018-10-04T02:54:30.824Z,79.05
2018-10-04T02:57:01.984Z,79.14
2018-10-04T02:59:31.809Z,78.61
2018-10-04T03:02:01.652Z,82.10
2018-10-04T03:04:31.357Z,83.40
2018-10-04T03:07:01.201Z,82.55
2018-10-04T03:09:31.375Z,81.03
2018-10-04T03:12:01.291Z,81.03
2018-10-04T03:14:31.483Z,81.59
2018-10-04T03:17:01.175Z,81.25
2018-10-04T03:19:30.877Z,81.06
2018-10-04T03:22:00.835Z,80.18
2018-10-04T03:24:30.613Z,81.32
2018-10-04T03:27:00.588Z,81.22
2018-10-04T03:29:30.447Z,80.11
2018-10-04T03:32:00.120Z,80.45
2018-10-04T03:34:30.072Z,80.92
2018-10-04T03:36:59.823Z,81.72
2018-10-04T03:39:29.483Z,80.62
2018-10-04T03:41:59.237Z,80.13
2018-10-04T03:44:29.315Z,80.25
2018-10-04T03:46:59.159Z,81.21
2018-10-04T03:49:28.930Z,81.33
2018-10-04T03:51:58.607Z,81.49
2018-10-04T03:54:28.477Z,80.22
2018-10-04T03:56:58.334Z,80.87
2018-10-04T03:59:28.268Z,79.97
2018-10-04T04:01:57.965Z,80.27
2018-10-04T04:04:27.727Z,80.85
2018-10-04T04:06:57.631Z,79.94
2018-10-04T04:09:27.389Z,80.26
2018-10-04T04:11:57.294Z,81.41
2018-10-04T04:14:27.131Z,80.24
2018-10-04T04:16:56.877Z,80.45
2018-10-04T04:19:27.361Z,80.31
2018-10-04T04:21:57.142Z,80.53
2018-10-04T04:24:26.799Z,79.92
2018-10-04T04:26:56.740Z,80.79
2018-10-04T04:29:26.730Z,80.20
2018-10-04T04:31:56.434Z,79.96
2018-10-04T04:34:26.194Z,80.37
2018-10-04T04:36:56.111Z,80.55
2018-10-04T04:39:25.956Z,79.89
2018-10-04T04:41:55.716Z,81.34
2018-10-04T04:44:25.603Z,81.06
2018-10-04T04:46:55.774Z,81.72
2018-10-04T04:49:25.687Z,80.47
2018-10-04T04:51:55.486Z,81.42
2018-10-04T04:55:36.807Z,79.91
2018-10-04T04:58:08.263Z,79.73
2018-10-04T05:00:39.514Z,79.46
2018-10-04T05:03:09.380Z,80.42
2018-10-04T05:05:39.213Z,79.98
2018-10-04T05:08:09.781Z,80.95
2018-10-04T05:10:39.840Z,80.84
2018-10-04T05:13:10.258Z,81.18
2018-10-04T05:15:40.625Z,80.40
2018-10-04T05:18:10.353Z,81.17
2018-10-04T05:20:40.133Z,79.68
2018-10-04T05:23:09.988Z,81.72
2018-10-04T05:25:39.827Z,81.46
2018-10-04T05:28:09.858Z,80.09
2018-10-04T05:30:39.611Z,81.00
2018-10-04T05:33:09.598Z,80.82
2018-10-04T05:35:39.339Z,79.45
2018-10-04T05:38:09.346Z,80.27
2018-10-04T05:40:39.246Z,79.98
2018-10-04T05:43:08.986Z,79.57
2018-10-04T05:45:38.948Z,80.12
2018-10-04T05:48:08.988Z,80.40
2018-10-04T05:50:38.914Z,80.96
2018-10-04T05:53:08.861Z,80.23
2018-10-04T05:55:38.871Z,82.04
2018-10-04T05:58:08.614Z,82.04
2018-10-04T06:00:42.993Z,81.14
2018-10-04T06:03:12.725Z,81.70
2018-10-04T06:05:42.473Z,80.68
2018-10-04T06:08:12.428Z,80.17
2018-10-04T06:10:43.211Z,80.74
2018-10-04T06:13:13.967Z,79.29
2018-10-04T06:15:43.787Z,80.03
2018-10-04T06:18:13.488Z,80.62
2018-10-04T06:20:43.329Z,81.43
2018-10-04T06:23:13.093Z,80.77
2018-10-04T06:25:42.803Z,80.61
2018-10-04T06:28:12.844Z,80.15
2018-10-04T06:30:42.958Z,80.66
2018-10-04T06:33:12.909Z,79.73
2018-10-04T06:35:42.631Z,79.88
2018-10-04T06:38:12.421Z,80.20
2018-10-04T06:40:42.139Z,80.23
2018-10-04T06:43:11.832Z,80.55
2018-10-04T06:45:41.965Z,81.23
2018-10-04T06:48:11.684Z,79.81
2018-10-04T06:50:41.393Z,79.70
2018-10-04T06:53:11.440Z,79.81
2018-10-04T06:55:41.208Z,79.82
2018-10-04T06:58:11.216Z,80.08
2018-10-04T07:00:41.196Z,79.11
2018-10-04T07:03:11.294Z,80.20
2018-10-04T07:05:41.076Z,80.08
2018-10-04T07:08:11.064Z,79.63
2018-10-04T07:10:40.840Z,79.79
2018-10-04T07:13:10.776Z,79.73
2018-10-04T07:15:40.831Z,80.69
2018-10-04T07:18:10.747Z,79.58
2018-10-04T07:20:40.635Z,79.61
2018-10-04T07:23:10.312Z,80.18
2018-10-04T07:25:40.191Z,79.25
2018-10-04T07:28:10.072Z,78.88
2018-10-04T07:30:40.094Z,79.07
2018-10-04T07:33:09.803Z,79.62
2018-10-04T07:35:39.889Z,79.62
2018-10-04T07:38:09.971Z,79.99
2018-10-04T07:40:40.084Z,79.29
2018-10-04T07:43:10.149Z,79.47
2018-10-04T07:45:39.868Z,79.46
2018-10-04T07:48:09.619Z,79.05
2018-10-04T07:50:39.414Z,79.48
2018-10-04T07:53:09.427Z,80.10
2018-10-04T07:55:39.625Z,79.26
2018-10-04T07:58:09.703Z,78.76
2018-10-04T08:00:39.420Z,79.44
2018-10-04T08:03:09.451Z,79.08
2018-10-04T08:05:39.572Z,79.60
2018-10-04T08:08:09.390Z,79.35
2018-10-04T08:10:39.270Z,78.68
2018-10-04T08:13:09.011Z,78.94
2018-10-04T08:15:38.955Z,78.25
2018-10-04T08:18:08.909Z,78.53
2018-10-04T08:20:38.686Z,78.91
2018-10-04T08:23:08.410Z,79.89
2018-10-04T08:25:38.664Z,79.33
2018-10-04T08:28:08.363Z,80.55
2018-10-04T08:30:38.058Z,80.44
2018-10-04T08:33:07.772Z,79.43
2018-10-04T08:35:37.675Z,79.31
2018-10-04T08:38:07.424Z,79.36
2018-10-04T08:40:37.132Z,78.90
2018-10-04T08:43:06.917Z,79.00
2018-10-04T08:45:36.666Z,78.59
2018-10-04T08:48:07.121Z,78.82
2018-10-04T08:50:36.944Z,79.16
2018-10-04T08:53:06.864Z,78.64
2018-10-04T08:55:37.625Z,78.94
2018-10-04T08:58:07.412Z,79.14
2018-10-04T09:00:37.501Z,79.02
2018-10-04T09:03:07.214Z,78.08
2018-10-04T09:05:36.966Z,79.01
2018-10-04T09:08:06.879Z,79.60
2018-10-04T09:10:36.620Z,78.99
2018-10-04T09:13:06.512Z,78.93
2018-10-04T09:15:36.459Z,78.80
2018-10-04T09:18:06.147Z,79.75
2018-10-04T09:20:35.834Z,78.82
2018-10-04T09:23:05.976Z,79.15
2018-10-04T09:25:35.979Z,78.43
2018-10-04T09:28:09.868Z,79.76
2018-10-04T09:30:44.906Z,79.15
2018-10-04T09:33:14.830Z,78.24
2018-10-04T09:35:44.994Z,78.33
2018-10-04T09:38:14.804Z,78.91
2018-10-04T09:40:44.558Z,78.17
2018-10-04T09:43:14.240Z,79.44
2018-10-04T09:45:43.920Z,78.03
2018-10-04T09:48:14.026Z,78.38
2018-10-04T09:50:43.859Z,78.64
2018-10-04T09:53:14.258Z,78.21
2018-10-04T09:55:49.102Z,80.33
2018-10-04T09:58:18.982Z,78.32
2018-10-04T10:01:55.335Z,79.22
2018-10-04T10:04:25.846Z,78.08
2018-10-04T10:06:55.675Z,77.99
2018-10-04T10:09:25.655Z,78.25
2018-10-04T10:11:55.609Z,77.71
2018-10-04T10:14:25.672Z,77.50
2018-10-04T10:16:55.498Z,78.22
2018-10-04T10:19:26.093Z,77.98
2018-10-04T10:21:56.187Z,77.60
2018-10-04T10:24:26.289Z,77.69
2018-10-04T10:26:56.398Z,77.91
2018-10-04T10:29:26.428Z,78.06
2018-10-04T10:31:56.168Z,77.57
2018-10-04T10:34:26.217Z,77.02
2018-10-04T10:36:55.926Z,77.84
2018-10-04T10:39:25.622Z,77.03
2018-10-04T10:41:55.830Z,77.05
2018-10-04T10:44:26.115Z,77.18
2018-10-04T10:46:55.803Z,76.59
2018-10-04T10:49:25.984Z,76.38
2018-10-04T10:51:55.837Z,76.92
2018-10-04T10:54:25.880Z,76.74
2018-10-04T10:56:55.828Z,77.28
2018-10-04T10:59:25.781Z,76.04
2018-10-04T11:01:56.160Z,75.75
2018-10-04T11:04:26.497Z,75.72
2018-10-04T11:06:56.412Z,76.44
2018-10-04T11:09:26.227Z,75.74
2018-10-04T11:11:56.407Z,75.04
2018-10-04T11:14:26.525Z,75.16
2018-10-04T11:16:56.419Z,74.65
2018-10-04T11:19:26.488Z,72.82
2018-10-04T11:21:56.418Z,73.60
2018-10-04T11:24:26.277Z,73.14
2018-10-04T11:26:56.031Z,73.67
2018-10-04T11:29:26.212Z,72.85
2018-10-04T11:31:56.051Z,73.62
2018-10-04T11:34:25.718Z,72.07
2018-10-04T11:36:55.480Z,72.83
2018-10-04T11:39:25.531Z,72.48
2018-10-04T11:41:55.300Z,72.49
2018-10-04T11:44:27.201Z,71.85
2018-10-04T11:47:00.870Z,71.82
2018-10-04T11:49:31.036Z,71.71
2018-10-04T11:52:00.928Z,72.93
2018-10-04T11:54:30.706Z,72.21
2018-10-04T11:57:00.580Z,71.38
2018-10-04T11:59:30.780Z,71.36
2018-10-04T12:02:01.006Z,71.11
2018-10-04T12:04:30.651Z,70.42
2018-10-04T12:07:06.386Z,69.95
2018-10-04T12:09:35.955Z,69.01
2018-10-04T12:12:05.863Z,69.29
2018-10-04T12:14:35.571Z,69.01
2018-10-04T12:17:05.271Z,69.83
2018-10-04T12:19:34.868Z,69.33
2018-10-04T12:22:05.639Z,68.41
2018-10-04T12:24:35.779Z,68.63
2018-10-04T12:27:05.544Z,69.03
2018-10-04T12:29:35.643Z,69.40
2018-10-04T12:32:05.613Z,68.25
2018-10-04T12:34:35.547Z,69.08
2018-10-04T12:37:05.330Z,68.37
2018-10-04T12:39:35.275Z,67.35
2018-10-04T12:42:05.187Z,66.70
2018-10-04T12:44:35.159Z,67.94
2018-10-04T12:47:04.891Z,66.74
2018-10-04T12:49:34.573Z,66.51
2018-10-04T12:52:04.219Z,66.73
2018-10-04T12:54:33.858Z,66.41
2018-10-04T12:57:03.488Z,66.53
2018-10-04T12:59:33.154Z,66.68
2018-10-04T13:02:03.573Z,66.46
2018-10-04T13:04:33.391Z,65.68
2018-10-04T13:07:03.289Z,64.50
2018-10-04T13:09:40.116Z,64.72
2018-10-04T13:12:14.078Z,64.96
2018-10-04T13:14:50.959Z,64.13
2018-10-04T13:17:21.239Z,63.80
2018-10-04T13:19:51.246Z,64.75
2018-10-04T13:22:21.207Z,64.25
2018-10-04T13:24:51.103Z,64.33
2018-10-04T13:27:21.031Z,64.20
2018-10-04T13:29:51.067Z,64.57
2018-10-04T13:32:21.035Z,63.63
2018-10-04T13:34:50.880Z,63.96
2018-10-04T13:37:20.929Z,63.67
2018-10-04T13:39:50.816Z,63.42
2018-10-04T13:42:20.775Z,63.96
2018-10-04T13:44:51.283Z,63.45
2018-10-04T13:47:20.988Z,63.92
2018-10-04T13:49:50.846Z,63.85
2018-10-04T13:52:20.844Z,62.86
2018-10-04T13:54:50.507Z,63.65
2018-10-04T13:57:20.568Z,63.30
2018-10-04T13:59:50.239Z,62.86
2018-10-04T14:02:19.913Z,62.37
2018-10-04T14:04:49.987Z,62.34
2018-10-04T14:07:19.854Z,62.39
2018-10-04T14:09:49.977Z,62.64
2018-10-04T14:12:19.966Z,62.39
2018-10-04T14:14:49.685Z,62.02
2018-10-04T14:17:19.384Z,61.70
2018-10-04T14:19:49.383Z,61.50
2018-10-04T14:22:19.046Z,61.74
2018-10-04T14:24:49.081Z,61.71
2018-10-04T14:27:19.736Z,62.22
2018-10-04T14:29:49.691Z,62.35
2018-10-04T14:32:19.500Z,62.47
2018-10-04T14:34:49.231Z,61.94
2018-10-04T14:37:18.898Z,62.73
2018-10-04T14:39:48.598Z,62.51
2018-10-04T14:42:18.931Z,60.69
2018-10-04T14:44:48.763Z,62.46
2018-10-04T14:47:20.278Z,62.15
2018-10-04T14:49:50.118Z,62.03
2018-10-04T14:52:23.496Z,61.51
2018-10-04T14:54:53.496Z,61.63
2018-10-04T14:57:23.530Z,61.13
2018-10-04T14:59:53.231Z,62.08
2018-10-04T15:02:22.914Z,62.02
2018-10-04T15:04:52.707Z,60.54
2018-10-04T15:07:23.631Z,60.91
2018-10-04T15:09:53.961Z,62.37
2018-10-04T15:12:23.950Z,60.83
2018-10-04T15:14:54.807Z,61.76
2018-10-04T15:17:25.114Z,61.35
2018-10-04T15:19:55.120Z,61.69
2018-10-04T15:22:25.086Z,61.11
2018-10-04T15:24:55.177Z,61.72
2018-10-04T15:27:24.787Z,62.56
2018-10-04T15:29:54.593Z,61.47
2018-10-04T15:32:24.680Z,62.37
2018-10-04T15:34:54.696Z,61.03
2018-10-04T15:37:24.758Z,62.91
2018-10-04T15:39:54.748Z,62.69
2018-10-04T15:42:25.367Z,61.95
2018-10-04T15:44:55.771Z,62.48
2018-10-04T15:47:25.620Z,62.52
2018-10-04T15:49:55.720Z,61.96
2018-10-04T15:52:25.564Z,62.57
2018-10-04T15:54:55.261Z,62.63
2018-10-04T15:57:27.347Z,62.37
2018-10-04T15:59:57.397Z,63.20
2018-10-04T16:02:27.340Z,62.48
2018-10-04T16:04:57.168Z,63.70
2018-10-04T16:07:32.734Z,62.78
2018-10-04T16:10:03.722Z,63.50
2018-10-04T16:12:34.004Z,63.71
2018-10-04T16:15:05.217Z,63.88
2018-10-04T16:17:35.088Z,63.98
2018-10-04T16:20:04.818Z,63.21
2018-10-04T16:22:34.518Z,64.03
2018-10-04T16:25:04.481Z,63.78
2018-10-04T16:27:39.979Z,64.09
2018-10-04T16:30:09.955Z,64.35
2018-10-04T16:32:39.646Z,64.12
2018-10-04T16:35:09.606Z,65.03
2018-10-04T16:37:39.843Z,63.75
2018-10-04T16:40:15.227Z,65.58
2018-10-04T16:42:45.088Z,65.61
2018-10-04T16:45:14.825Z,66.00
2018-10-04T16:47:44.550Z,66.22
2018-10-04T16:50:14.371Z,66.94
2018-10-04T16:52:44.423Z,67.37
2018-10-04T16:55:14.945Z,67.70
2018-10-04T16:57:45.139Z,67.23
2018-10-04T17:00:15.026Z,67.68
2018-10-04T17:02:44.675Z,68.25
2018-10-04T17:05:14.943Z,69.40
2018-10-04T17:07:44.598Z,69.68
2018-10-04T17:10:14.307Z,70.25
2018-10-04T17:12:47.491Z,70.47
2018-10-04T17:15:17.140Z,70.19
2018-10-04T17:17:47.454Z,70.76
2018-10-04T17:20:17.404Z,71.17
2018-10-04T17:22:47.359Z,72.05
2018-10-04T17:25:17.028Z,71.71
2018-10-04T17:27:46.735Z,71.00
2018-10-04T17:30:16.822Z,70.31
2018-10-04T17:32:46.505Z,70.74
2018-10-04T17:35:17.180Z,72.05
2018-10-04T17:37:46.931Z,71.00
2018-10-04T17:40:21.369Z,71.59
2018-10-04T17:42:51.382Z,72.65
2018-10-04T17:45:21.075Z,72.57
2018-10-04T17:47:50.975Z,73.38
2018-10-04T17:50:20.524Z,72.08
2018-10-04T17:52:50.848Z,72.20
2018-10-04T17:55:20.824Z,73.21
2018-10-04T17:57:50.486Z,74.83
2018-10-04T18:00:20.466Z,74.13
2018-10-04T18:02:50.261Z,73.68
2018-10-04T18:05:20.032Z,73.15
2018-10-04T18:08:00.067Z,72.56
2018-10-04T18:10:30.839Z,72.48
2018-10-04T18:13:00.619Z,72.37
2018-10-04T18:15:32.655Z,73.84
2018-10-04T18:18:02.331Z,74.46
2018-10-04T18:20:32.607Z,74.61
2018-10-04T18:23:04.415Z,74.75
2018-10-04T18:25:34.326Z,73.27
2018-10-04T18:28:04.018Z,72.16
2018-10-04T18:30:34.340Z,72.45
2018-10-04T18:33:06.146Z,73.15
2018-10-04T18:35:36.831Z,74.66
2018-10-04T18:38:07.253Z,75.32
2018-10-04T18:40:37.206Z,74.17
2018-10-04T18:43:07.021Z,75.63
2018-10-04T18:45:37.049Z,76.33
2018-10-04T18:48:07.183Z,76.34
2018-10-04T18:50:38.010Z,76.21
2018-10-04T18:53:07.983Z,75.61
2018-10-04T18:55:38.097Z,76.42
2018-10-04T18:58:08.883Z,74.98
2018-10-04T19:00:38.710Z,73.42
2018-10-04T19:03:08.930Z,73.26
2018-10-04T19:05:38.845Z,73.06
2018-10-04T19:08:08.507Z,75.19
2018-10-04T19:10:40.251Z,76.31
2018-10-04T19:13:10.296Z,77.51
2018-10-04T19:15:40.080Z,77.43
2018-10-04T19:18:10.085Z,76.20
2018-10-04T19:20:40.202Z,75.52
2018-10-04T19:23:10.295Z,74.62
2018-10-04T19:25:40.392Z,74.50
2018-10-04T19:28:10.632Z,75.25
2018-10-04T19:30:41.371Z,74.71
2018-10-04T19:33:11.558Z,73.35
2018-10-04T19:35:41.632Z,74.69
2018-10-04T19:38:11.479Z,76.23
2018-10-04T19:40:41.425Z,77.56
2018-10-04T19:43:11.407Z,76.75
2018-10-04T19:45:42.723Z,75.62
2018-10-04T19:48:12.729Z,75.21
2018-10-04T19:50:43.059Z,75.86
2018-10-04T19:53:12.917Z,76.31
2018-10-04T19:55:42.661Z,77.20
2018-10-04T19:58:12.681Z,78.22
2018-10-04T20:00:42.627Z,77.33
2018-10-04T20:03:12.486Z,75.83
2018-10-04T20:05:42.457Z,74.81
2018-10-04T20:08:12.791Z,74.43
2018-10-04T20:10:42.948Z,75.04
2018-10-04T20:13:14.009Z,74.88
2018-10-04T20:15:43.929Z,75.33
2018-10-04T20:18:18.764Z,75.94
2018-10-04T20:20:48.729Z,76.17
2018-10-04T20:23:18.644Z,76.67
2018-10-04T20:25:48.531Z,76.33
2018-10-04T20:28:18.487Z,77.61
2018-10-04T20:30:49.836Z,79.06
2018-10-04T20:33:19.716Z,78.38
2018-10-04T20:35:49.554Z,78.66
2018-10-04T20:38:19.512Z,77.72
2018-10-04T20:40:50.397Z,77.88
2018-10-04T20:43:20.419Z,78.99
2018-10-04T20:45:50.226Z,77.95
2018-10-04T20:48:20.216Z,77.93
2018-10-04T20:50:50.229Z,76.85
2018-10-04T20:53:20.333Z,77.29
2018-10-04T20:55:50.214Z,77.91
2018-10-04T20:58:20.605Z,79.08
2018-10-04T21:00:50.851Z,79.84
2018-10-04T21:03:20.753Z,78.20
2018-10-04T21:05:50.694Z,76.72
2018-10-04T21:08:20.601Z,77.64
2018-10-04T21:10:50.625Z,77.52
2018-10-04T21:13:20.626Z,80.68
2018-10-04T21:15:50.609Z,79.31
2018-10-04T21:18:20.843Z,77.87
2018-10-04T21:20:50.597Z,77.32
2018-10-04T21:23:20.602Z,78.38
2018-10-04T21:25:50.388Z,78.33
2018-10-04T21:28:20.218Z,79.35
2018-10-04T21:30:51.239Z,78.34
2018-10-04T21:33:21.328Z,79.50
2018-10-04T21:35:51.211Z,80.26
2018-10-04T21:38:21.147Z,79.86
2018-10-04T21:40:51.192Z,79.67
2018-10-04T21:43:21.002Z,79.62
2018-10-04T21:45:54.360Z,80.95
2018-10-04T21:48:24.313Z,79.24
2018-10-04T21:50:54.284Z,80.61
2018-10-04T21:53:28.707Z,79.27
2018-10-04T21:56:03.488Z,79.38
2018-10-04T21:58:33.331Z,79.24
2018-10-04T22:01:04.914Z,78.75
2018-10-04T22:03:34.756Z,77.56
2018-10-04T22:06:04.799Z,76.83
2018-10-04T22:08:34.616Z,79.38
2018-10-04T22:11:04.380Z,79.71
2018-10-04T22:13:34.099Z,81.70
2018-10-04T22:16:04.112Z,80.52
2018-10-04T22:18:33.858Z,81.12
2018-10-04T22:21:03.680Z,81.01
2018-10-04T22:23:33.932Z,81.03
2018-10-04T22:26:04.045Z,80.29
2018-10-04T22:28:34.752Z,80.67
2018-10-04T22:31:04.850Z,78.75
2018-10-04T22:33:34.848Z,77.37
2018-10-04T22:36:04.643Z,76.21
2018-10-04T22:38:34.681Z,76.52
2018-10-04T22:41:04.801Z,77.01
2018-10-04T22:43:34.543Z,76.30
2018-10-04T22:46:04.661Z,78.71
2018-10-04T22:48:34.621Z,79.73
2018-10-04T22:51:04.751Z,80.45
2018-10-04T22:53:34.768Z,81.05
2018-10-04T22:56:04.576Z,80.22
2018-10-04T22:58:34.276Z,80.33
2018-10-04T23:01:04.486Z,79.35
2018-10-04T23:03:34.433Z,78.89
2018-10-04T23:06:04.531Z,77.88
2018-10-04T23:08:34.596Z,77.09
2018-10-04T23:11:04.383Z,76.51
2018-10-04T23:13:34.240Z,76.72
2018-10-04T23:16:04.220Z,79.20
2018-10-04T23:18:35.178Z,79.95
2018-10-04T23:21:05.135Z,80.15
2018-10-04T23:23:35.004Z,81.00
2018-10-04T23:26:05.023Z,81.81
2018-10-04T23:28:34.951Z,79.56
2018-10-04T23:31:04.735Z,79.83
2018-10-04T23:33:34.562Z,78.07
2018-10-04T23:36:04.490Z,77.25
2018-10-04T23:38:34.460Z,77.24
2018-10-04T23:41:04.523Z,76.73
2018-10-04T23:43:34.518Z,78.28
2018-10-04T23:46:04.496Z,78.52
2018-10-04T23:48:34.720Z,79.62
2018-10-04T23:51:04.856Z,80.32
2018-10-04T23:53:34.711Z,79.21
2018-10-04T23:56:04.703Z,79.41
2018-10-04T23:58:34.425Z,80.37
